createdAt,value
2022-12-04T00:01:38.610Z,10.93
2022-12-04T00:04:27.416Z,10.37
2022-12-04T00:07:16.226Z,10.63
2022-12-04T00:10:05.566Z,8.83
2022-12-04T00:12:54.325Z,9.87
2022-12-04T00:15:43.888Z,9.87
2022-12-04T00:18:34.044Z,9.70
2022-12-04T00:21:23.459Z,9.60
2022-12-04T00:24:12.286Z,9.97
2022-12-04T00:27:01.093Z,10.07
2022-12-04T00:29:50.068Z,9.60
2022-12-04T00:32:38.897Z,10.20
2022-12-04T00:35:29.030Z,9.70
2022-12-04T00:38:17.824Z,10.10
2022-12-04T00:41:06.824Z,10.47
2022-12-04T00:43:55.615Z,9.47
2022-12-04T00:46:44.427Z,9.73
2022-12-04T00:49:33.276Z,9.63
2022-12-04T00:52:23.920Z,9.20
2022-12-04T00:55:12.788Z,9.40
2022-12-04T00:58:01.825Z,9.60
2022-12-04T01:00:50.658Z,9.37
2022-12-04T01:03:39.902Z,9.40
2022-12-04T01:06:29.473Z,9.33
2022-12-04T01:09:19.964Z,12.13
2022-12-04T01:12:08.809Z,10.27
2022-12-04T01:14:57.584Z,11.00
2022-12-04T01:17:46.698Z,10.43
2022-12-04T01:20:35.922Z,11.40
2022-12-04T01:23:24.689Z,10.60
2022-12-04T01:26:14.896Z,10.70
2022-12-04T01:29:03.890Z,11.20
2022-12-04T01:31:52.784Z,10.00
2022-12-04T01:34:41.668Z,9.70
2022-12-04T01:37:31.723Z,9.73
2022-12-04T01:40:20.528Z,9.80
2022-12-04T01:43:14.017Z,9.27
2022-12-04T01:46:03.913Z,10.33
2022-12-04T01:48:55.519Z,10.10
2022-12-04T01:51:46.041Z,10.37
2022-12-04T01:54:37.723Z,9.93
2022-12-04T01:57:27.938Z,10.07
2022-12-04T02:00:18.557Z,10.10
2022-12-04T02:03:07.693Z,9.17
2022-12-04T02:05:56.535Z,10.47
2022-12-04T02:08:45.400Z,9.57
2022-12-04T02:11:40.797Z,10.13
2022-12-04T02:14:35.999Z,9.97
2022-12-04T02:17:29.363Z,9.30
2022-12-04T02:20:23.275Z,9.80
2022-12-04T02:23:35.944Z,9.27
2022-12-04T02:26:32.917Z,9.33
2022-12-04T02:29:29.082Z,10.03
2022-12-04T02:32:20.487Z,9.90
2022-12-04T02:35:14.050Z,9.20
2022-12-04T02:38:07.295Z,8.43
2022-12-04T02:40:58.562Z,8.60
2022-12-04T02:43:48.814Z,8.43
2022-12-04T02:46:40.204Z,9.23
2022-12-04T02:49:31.172Z,9.17
2022-12-04T02:52:22.881Z,8.90
2022-12-04T02:55:14.775Z,9.20
2022-12-04T02:58:06.166Z,9.43
2022-12-04T03:00:56.136Z,8.70
2022-12-04T03:03:47.694Z,8.27
2022-12-04T03:06:37.811Z,8.27
2022-12-04T03:09:29.036Z,9.43
2022-12-04T03:12:22.067Z,9.07
2022-12-04T03:15:13.985Z,9.17
2022-12-04T03:18:07.713Z,8.07
2022-12-04T03:21:03.457Z,8.90
2022-12-04T03:23:54.748Z,9.10
2022-12-04T03:26:45.187Z,8.83
2022-12-04T03:29:37.469Z,8.00
2022-12-04T03:32:29.223Z,8.60
2022-12-04T03:35:19.958Z,8.50
2022-12-04T03:38:13.232Z,8.20
2022-12-04T03:41:04.887Z,7.23
2022-12-04T03:43:55.561Z,8.33
2022-12-04T03:46:49.344Z,7.70
2022-12-04T03:49:42.868Z,8.00
2022-12-04T03:52:32.574Z,7.90
2022-12-04T03:55:25.347Z,7.90
2022-12-04T03:58:15.503Z,8.50
2022-12-04T04:01:05.618Z,7.70
2022-12-04T04:03:56.329Z,9.47
2022-12-04T04:06:48.308Z,7.53
2022-12-04T04:09:38.703Z,7.43
2022-12-04T04:12:30.577Z,7.63
2022-12-04T04:15:37.561Z,8.03
2022-12-04T04:18:44.308Z,7.47
2022-12-04T04:21:53.327Z,8.30
2022-12-04T04:24:44.951Z,7.97
2022-12-04T04:27:35.287Z,7.80
2022-12-04T04:30:34.859Z,8.13
2022-12-04T04:33:23.894Z,7.03
2022-12-04T04:36:16.672Z,7.57
2022-12-04T04:39:09.617Z,8.13
2022-12-04T04:42:00.997Z,8.17
2022-12-04T04:44:54.447Z,8.17
2022-12-04T04:47:46.902Z,7.13
2022-12-04T04:50:36.391Z,7.73
2022-12-04T04:53:28.331Z,7.40
2022-12-04T04:56:17.345Z,7.37
2022-12-04T04:59:06.147Z,7.23
2022-12-04T05:01:56.445Z,8.57
2022-12-04T05:04:45.273Z,7.13
2022-12-04T05:07:34.106Z,7.60
2022-12-04T05:10:22.885Z,8.23
2022-12-04T05:13:13.216Z,6.97
2022-12-04T05:16:03.191Z,8.23
2022-12-04T05:19:11.392Z,8.30
2022-12-04T05:22:00.192Z,8.37
2022-12-04T05:24:49.121Z,8.00
2022-12-04T05:27:37.910Z,7.50
2022-12-04T05:30:27.156Z,7.80
2022-12-04T05:33:15.937Z,7.60
2022-12-04T05:36:07.949Z,7.70
2022-12-04T05:38:56.719Z,7.63
2022-12-04T05:41:45.464Z,7.13
2022-12-04T05:44:34.457Z,7.90
2022-12-04T05:47:23.260Z,7.93
2022-12-04T05:50:13.038Z,7.77
2022-12-04T05:53:03.153Z,7.50
2022-12-04T05:55:58.219Z,7.33
2022-12-04T05:58:46.975Z,7.83
2022-12-04T06:01:35.738Z,7.53
2022-12-04T06:04:24.595Z,6.60
2022-12-04T06:07:13.348Z,7.40
2022-12-04T06:10:03.510Z,7.20
2022-12-04T06:12:57.035Z,8.20
2022-12-04T06:15:45.775Z,6.87
2022-12-04T06:18:34.560Z,7.17
2022-12-04T06:21:24.399Z,7.00
2022-12-04T06:24:14.963Z,7.67
2022-12-04T06:27:26.730Z,7.10
2022-12-04T06:30:14.282Z,7.17
2022-12-04T06:33:03.039Z,7.30
2022-12-04T06:35:59.110Z,7.27
2022-12-04T06:38:47.876Z,6.67
2022-12-04T06:41:36.632Z,7.23
2022-12-04T06:44:26.758Z,7.67
2022-12-04T06:47:15.465Z,6.30
2022-12-04T06:50:04.446Z,6.63
2022-12-04T06:52:53.188Z,6.73
2022-12-04T06:55:41.950Z,6.83
2022-12-04T06:58:31.043Z,7.27
2022-12-04T07:01:21.994Z,7.13
2022-12-04T07:04:11.015Z,6.50
2022-12-04T07:06:59.796Z,6.37
2022-12-04T07:09:48.634Z,6.37
2022-12-04T07:12:37.380Z,6.90
2022-12-04T07:15:26.645Z,6.50
2022-12-04T07:18:16.743Z,6.03
2022-12-04T07:21:08.857Z,7.57
2022-12-04T07:23:58.502Z,7.40
2022-12-04T07:26:47.289Z,6.90
2022-12-04T07:29:36.107Z,6.80
2022-12-04T07:32:24.874Z,6.30
2022-12-04T07:35:15.008Z,6.33
2022-12-04T07:38:03.855Z,6.63
2022-12-04T07:40:52.743Z,6.13
2022-12-04T07:43:42.041Z,6.40
2022-12-04T07:46:30.881Z,6.50
2022-12-04T07:49:19.707Z,6.60
2022-12-04T07:52:09.806Z,6.60
2022-12-04T07:54:59.077Z,7.20
2022-12-04T07:57:47.815Z,6.30
2022-12-04T08:00:36.589Z,6.10
2022-12-04T08:03:26.016Z,6.07
2022-12-04T08:06:14.937Z,6.20
2022-12-04T08:09:09.803Z,6.70
2022-12-04T08:11:59.087Z,7.60
2022-12-04T08:14:47.839Z,6.20
2022-12-04T08:17:36.629Z,6.20
2022-12-04T08:20:25.383Z,6.03
2022-12-04T08:23:14.116Z,6.20
2022-12-04T08:26:04.691Z,6.43
2022-12-04T08:28:54.503Z,6.03
2022-12-04T08:31:43.290Z,6.13
2022-12-04T08:34:32.141Z,6.10
2022-12-04T08:37:20.862Z,6.40
2022-12-04T08:40:11.720Z,6.27
2022-12-04T08:43:01.812Z,6.00
2022-12-04T08:45:56.437Z,6.23
2022-12-04T08:48:45.726Z,6.03
2022-12-04T08:51:35.675Z,6.27
2022-12-04T08:54:24.451Z,6.00
2022-12-04T08:57:13.206Z,5.63
2022-12-04T09:00:03.751Z,5.97
2022-12-04T09:02:52.468Z,5.47
2022-12-04T09:05:42.012Z,6.00
2022-12-04T09:08:30.976Z,5.63
2022-12-04T09:11:20.966Z,6.53
2022-12-04T09:14:09.727Z,5.63
2022-12-04T09:16:59.861Z,6.17
2022-12-04T09:19:48.649Z,5.80
2022-12-04T09:23:02.039Z,5.83
2022-12-04T09:25:47.368Z,5.67
2022-12-04T09:28:36.127Z,5.87
2022-12-04T09:31:25.509Z,5.47
2022-12-04T09:34:15.661Z,5.70
2022-12-04T09:37:04.403Z,5.70
2022-12-04T09:39:53.474Z,5.20
2022-12-04T09:42:45.923Z,5.63
2022-12-04T09:45:40.070Z,6.07
2022-12-04T09:48:40.124Z,6.10
2022-12-04T09:51:30.693Z,6.10
2022-12-04T09:54:21.165Z,6.07
2022-12-04T09:57:14.064Z,5.20
2022-12-04T10:00:04.421Z,5.77
2022-12-04T10:02:54.384Z,6.00
2022-12-04T10:05:49.985Z,6.17
2022-12-04T10:08:41.013Z,5.10
2022-12-04T10:11:34.222Z,5.40
2022-12-04T10:14:35.694Z,5.73
2022-12-04T10:17:32.948Z,5.87
2022-12-04T10:20:30.003Z,5.23
2022-12-04T10:23:21.074Z,6.33
2022-12-04T10:26:15.383Z,5.63
2022-12-04T10:29:04.989Z,6.03
2022-12-04T10:31:55.739Z,5.57
2022-12-04T10:34:46.122Z,5.70
2022-12-04T10:37:36.215Z,5.20
2022-12-04T10:40:27.395Z,4.97
2022-12-04T10:43:19.995Z,6.30
2022-12-04T10:46:12.526Z,7.23
2022-12-04T10:49:02.657Z,5.33
2022-12-04T10:51:52.113Z,5.03
2022-12-04T10:54:45.096Z,5.80
2022-12-04T10:57:38.324Z,5.00
2022-12-04T11:00:30.308Z,5.53
2022-12-04T11:03:25.822Z,4.73
2022-12-04T11:06:15.907Z,5.03
2022-12-04T11:09:05.553Z,8.93
2022-12-04T11:11:54.715Z,7.03
2022-12-04T11:14:46.993Z,5.00
2022-12-04T11:17:37.585Z,5.27
2022-12-04T11:20:27.927Z,6.00
2022-12-04T11:23:17.458Z,5.37
2022-12-04T11:26:06.675Z,4.90
2022-12-04T11:28:56.148Z,5.30
2022-12-04T11:31:49.337Z,6.50
2022-12-04T11:34:40.509Z,5.70
2022-12-04T11:37:31.927Z,5.37
2022-12-04T11:40:21.248Z,5.10
2022-12-04T11:43:14.976Z,6.03
2022-12-04T11:46:05.068Z,8.87
2022-12-04T11:48:54.211Z,7.03
2022-12-04T11:51:50.500Z,5.60
2022-12-04T11:54:44.581Z,6.47
2022-12-04T11:57:39.410Z,6.03
2022-12-04T12:00:28.645Z,5.77
2022-12-04T12:03:20.526Z,5.90
2022-12-04T12:06:18.131Z,6.50
2022-12-04T12:09:14.271Z,10.53
2022-12-04T12:12:04.834Z,10.50
2022-12-04T12:14:58.429Z,8.60
2022-12-04T12:17:52.197Z,7.90
2022-12-04T12:22:59.553Z,7.40
2022-12-04T12:25:56.483Z,7.17
2022-12-04T12:30:46.057Z,6.50
2022-12-04T12:33:43.473Z,6.37
2022-12-04T12:36:41.358Z,6.10
2022-12-04T12:39:39.420Z,6.03
2022-12-04T12:42:33.530Z,5.83
2022-12-04T12:45:28.283Z,6.20
2022-12-04T12:49:47.918Z,6.43
2022-12-04T12:52:40.095Z,6.10
2022-12-04T12:55:30.644Z,5.60
2022-12-04T12:58:27.450Z,5.90
2022-12-04T13:01:19.689Z,5.33
2022-12-04T13:04:12.112Z,5.60
2022-12-04T13:07:06.361Z,5.20
2022-12-04T13:09:59.448Z,5.70
2022-12-04T13:12:50.442Z,5.80
2022-12-04T13:15:40.652Z,5.90
2022-12-04T13:18:31.207Z,6.10
2022-12-04T13:21:29.931Z,5.27
2022-12-04T13:24:43.068Z,5.07
2022-12-04T13:27:39.509Z,5.10
2022-12-04T13:30:32.532Z,5.17
2022-12-04T13:33:31.472Z,5.60
2022-12-04T13:36:35.670Z,5.20
2022-12-04T13:39:35.671Z,6.83
2022-12-04T13:42:25.919Z,7.30
2022-12-04T13:45:26.498Z,8.10
2022-12-04T13:48:15.300Z,6.13
2022-12-04T13:51:09.683Z,6.60
2022-12-04T13:54:02.716Z,8.20
2022-12-04T13:56:52.507Z,6.17
2022-12-04T13:59:41.731Z,5.97
2022-12-04T14:02:35.273Z,9.83
2022-12-04T14:05:28.261Z,6.70
2022-12-04T14:09:01.705Z,6.33
2022-12-04T14:11:54.513Z,5.20
2022-12-04T14:14:45.332Z,5.67
2022-12-04T14:17:35.720Z,6.27
2022-12-04T14:20:27.646Z,4.87
2022-12-04T14:23:28.208Z,5.37
2022-12-04T14:26:48.933Z,5.60
2022-12-04T14:29:47.129Z,5.73
2022-12-04T14:32:36.744Z,6.23
2022-12-04T14:35:27.426Z,5.10
2022-12-04T14:38:19.708Z,6.10
2022-12-04T14:41:08.759Z,10.13
2022-12-04T14:43:58.773Z,5.67
2022-12-04T14:46:52.265Z,5.17
2022-12-04T14:49:50.658Z,6.73
2022-12-04T14:52:45.687Z,8.03
2022-12-04T14:55:44.286Z,6.10
2022-12-04T14:58:35.292Z,8.20
2022-12-04T15:01:29.922Z,6.10
2022-12-04T15:04:24.608Z,6.30
2022-12-04T15:07:21.700Z,6.50
2022-12-04T15:10:38.532Z,6.67
2022-12-04T15:13:27.921Z,7.00
2022-12-04T15:16:19.458Z,6.47
2022-12-04T15:19:18.715Z,6.50
2022-12-04T15:22:14.117Z,7.30
2022-12-04T15:25:06.515Z,7.10
2022-12-04T15:28:04.333Z,6.27
2022-12-04T15:30:55.010Z,6.93
2022-12-04T15:33:45.462Z,7.53
2022-12-04T15:36:46.335Z,6.50
2022-12-04T15:39:37.897Z,6.07
2022-12-04T15:42:29.172Z,6.00
2022-12-04T15:45:31.796Z,6.90
2022-12-04T15:48:25.847Z,6.60
2022-12-04T15:51:15.760Z,7.40
2022-12-04T15:54:05.973Z,6.87
2022-12-04T15:57:02.246Z,7.97
2022-12-04T15:59:53.595Z,7.70
2022-12-04T16:02:44.938Z,8.47
2022-12-04T16:05:37.154Z,8.73
2022-12-04T16:08:30.022Z,8.50
2022-12-04T16:11:34.483Z,8.00
2022-12-04T16:14:23.040Z,8.70
2022-12-04T16:17:13.722Z,8.30
2022-12-04T16:20:05.157Z,8.40
2022-12-04T16:22:55.747Z,8.77
2022-12-04T16:25:44.281Z,8.53
2022-12-04T16:28:34.288Z,9.17
2022-12-04T16:31:24.361Z,8.57
2022-12-04T16:34:13.760Z,8.20
2022-12-04T16:37:02.306Z,8.50
2022-12-04T16:39:51.493Z,8.50
2022-12-04T16:42:41.159Z,8.27
2022-12-04T16:45:33.824Z,8.30
2022-12-04T16:48:22.682Z,9.33
2022-12-04T16:51:17.119Z,8.73
2022-12-04T16:54:05.727Z,8.30
2022-12-04T16:56:54.239Z,8.37
2022-12-04T16:59:43.130Z,9.47
2022-12-04T17:02:33.114Z,9.00
2022-12-04T17:05:23.726Z,8.90
2022-12-04T17:08:12.383Z,9.40
2022-12-04T17:11:01.004Z,8.57
2022-12-04T17:13:49.790Z,8.70
2022-12-04T17:16:41.682Z,8.80
2022-12-04T17:19:31.590Z,8.63
2022-12-04T17:22:20.965Z,9.37
2022-12-04T17:25:10.161Z,9.00
2022-12-04T17:27:59.101Z,9.13
2022-12-04T17:30:47.845Z,9.53
2022-12-04T17:33:36.401Z,9.30
2022-12-04T17:36:27.535Z,9.03
2022-12-04T17:39:16.083Z,8.73
2022-12-04T17:42:04.746Z,9.40
